East Eldorado, Illinois
Current Conditions -  °F | °C
As of 11:15 AM on Friday 19 Dec 2014 (Local Time) from KHSB Reporting Station
Overcast Overcast  
Wind Chill: 35°   Ceiling: 4000
Heat Index: 35°   Visibility: 10mi
Dew Point: 27°   Wind: 3mph
Humidity: 73%   Direction: 80°E
Pressure: 30.32"   Gusts: NA
Location:  37.8101°N, 88.4411°W
Report Text: KHSB 191715Z AUTO 08003KT 10SM OVC040 02/M03 A3032 RMK AO2 T00151029
Loading
Personal Weather Stations






























Interactive Weather Map New forecast layout! Learn more

10-Day Weather Forecast

Advertisements
Track Severe Weather on mobile